createdAt,value
2018-10-16T00:00:35.775Z,20.4
2018-10-16T00:01:24.972Z,20.4
2018-10-16T00:02:16.150Z,20.4
2018-10-16T00:03:08.178Z,20.4
2018-10-16T00:03:55.668Z,20.4
2018-10-16T00:04:45.562Z,20.4
2018-10-16T00:05:35.278Z,20.4
2018-10-16T00:06:26.160Z,20.4
2018-10-16T00:25:29.565Z,20.4
2018-10-16T00:26:19.896Z,20.4
2018-10-16T00:27:09.099Z,20.4
2018-10-16T00:27:58.609Z,20.4
2018-10-16T00:28:49.306Z,20.4
2018-10-16T00:29:39.633Z,20.4
2018-10-16T00:30:31.013Z,20.4
2018-10-16T00:31:20.534Z,20.4
2018-10-16T00:32:09.486Z,20.4
2018-10-16T00:33:00.199Z,20.4
2018-10-16T00:33:50.176Z,20.4
2018-10-16T00:34:39.683Z,20.4
2018-10-16T00:35:30.572Z,20.4
2018-10-16T00:36:19.468Z,20.4
2018-10-16T00:37:09.610Z,20.4
2018-10-16T00:37:59.651Z,20.4
2018-10-16T00:38:49.949Z,20.4
2018-10-16T00:39:40.324Z,20.4
2018-10-16T00:40:30.893Z,20.4
2018-10-16T00:41:20.654Z,20.4
2018-10-16T00:42:10.227Z,20.4
2018-10-16T00:43:01.358Z,20.4
2018-10-16T00:43:50.563Z,20.4
2018-10-16T00:44:40.915Z,20.4
2018-10-16T00:45:31.553Z,20.4
2018-10-16T00:46:20.659Z,20.4
2018-10-16T00:47:11.215Z,20.4
2018-10-16T00:48:00.143Z,20.4
2018-10-16T00:48:51.663Z,20.4
2018-10-16T00:49:41.915Z,20.3
2018-10-16T00:50:31.154Z,20.4
2018-10-16T00:51:21.136Z,20.3
2018-10-16T00:52:12.095Z,20.4
2018-10-16T00:53:01.580Z,20.4
2018-10-16T00:53:51.880Z,20.3
2018-10-16T00:54:41.255Z,20.4
2018-10-16T00:55:32.140Z,20.4
2018-10-16T00:56:22.086Z,20.4
2018-10-16T00:57:11.844Z,20.4
2018-10-16T00:58:01.371Z,20.4
2018-10-16T00:58:51.751Z,20.4
2018-10-16T00:59:42.109Z,20.4
2018-10-16T01:00:32.682Z,20.4
2018-10-16T01:01:22.690Z,20.4
2018-10-16T01:02:13.072Z,20.4
2018-10-16T01:03:02.640Z,20.4
2018-10-16T01:03:51.867Z,20.4
2018-10-16T01:04:42.427Z,20.3
2018-10-16T01:05:32.514Z,20.4
2018-10-16T01:06:23.385Z,20.4
2018-10-16T01:07:13.179Z,20.3
2018-10-16T01:08:02.912Z,20.3
2018-10-16T01:08:52.022Z,20.4
2018-10-16T01:09:41.996Z,20.3
2018-10-16T01:10:33.445Z,20.4
2018-10-16T01:11:22.619Z,20.3
2018-10-16T01:12:12.816Z,20.4
2018-10-16T01:13:01.441Z,20.4
2018-10-16T01:13:51.839Z,20.3
2018-10-16T01:14:42.950Z,20.4
2018-10-16T01:15:33.116Z,20.3
2018-10-16T01:16:22.785Z,20.3
2018-10-16T01:17:12.605Z,20.4
2018-10-16T01:18:03.161Z,20.4
2018-10-16T01:18:52.471Z,20.4
2018-10-16T01:19:41.670Z,20.3
2018-10-16T01:20:32.636Z,20.4
2018-10-16T01:21:22.843Z,20.3
2018-10-16T01:22:13.583Z,20.4
2018-10-16T01:23:03.891Z,20.3
2018-10-16T01:23:53.365Z,20.3
2018-10-16T01:24:43.453Z,20.3
2018-10-16T01:25:33.762Z,20.4
2018-10-16T01:26:23.534Z,20.4
2018-10-16T01:27:13.915Z,20.3
2018-10-16T01:28:04.489Z,20.3
2018-10-16T01:28:53.450Z,20.3
2018-10-16T01:29:43.784Z,20.3
2018-10-16T01:30:33.618Z,20.3
2018-10-16T01:31:23.995Z,20.3
2018-10-16T01:32:13.433Z,20.3
2018-10-16T01:33:04.850Z,20.3
2018-10-16T01:33:54.255Z,20.3
2018-10-16T01:34:44.417Z,20.3
2018-10-16T01:35:33.636Z,20.3
2018-10-16T01:36:24.543Z,20.4
2018-10-16T01:37:14.387Z,20.3
2018-10-16T01:38:04.172Z,20.3
2018-10-16T01:38:54.972Z,20.3
2018-10-16T01:39:44.510Z,20.3
2018-10-16T01:40:35.078Z,20.3
2018-10-16T01:41:25.145Z,20.3
2018-10-16T01:42:15.468Z,20.3
2018-10-16T01:43:05.470Z,20.3
2018-10-16T01:43:54.784Z,20.3
2018-10-16T01:44:43.763Z,20.3
2018-10-16T01:45:36.037Z,20.3
2018-10-16T01:46:25.572Z,20.3
2018-10-16T01:47:14.805Z,20.3
2018-10-16T01:48:05.325Z,20.3
2018-10-16T01:48:56.517Z,20.3
2018-10-16T01:49:45.260Z,20.3
2018-10-16T01:50:35.396Z,20.3
2018-10-16T01:51:24.934Z,20.3
2018-10-16T01:52:14.921Z,20.3
2018-10-16T01:53:06.786Z,20.3
2018-10-16T01:53:55.798Z,20.3
2018-10-16T01:54:45.636Z,20.3
2018-10-16T01:55:34.541Z,20.3
2018-10-16T01:56:26.254Z,20.3
2018-10-16T01:57:16.164Z,20.3
2018-10-16T01:58:06.426Z,20.3
2018-10-16T01:58:55.892Z,20.3
2018-10-16T01:59:45.474Z,20.3
2018-10-16T02:00:35.861Z,20.3
2018-10-16T02:01:26.946Z,20.3
2018-10-16T02:02:17.508Z,20.3
2018-10-16T02:03:04.590Z,20.3
2018-10-16T02:03:57.181Z,20.3
2018-10-16T02:04:46.688Z,20.3
2018-10-16T02:05:36.131Z,20.3
2018-10-16T02:06:26.783Z,20.3
2018-10-16T02:07:15.989Z,20.3
2018-10-16T02:08:06.918Z,20.3
2018-10-16T02:08:56.921Z,20.3
2018-10-16T02:09:46.488Z,20.3
2018-10-16T02:10:37.447Z,20.3
2018-10-16T02:11:26.872Z,20.3
2018-10-16T02:12:16.619Z,20.3
2018-10-16T02:13:06.423Z,20.3
2018-10-16T02:13:56.185Z,20.3
2018-10-16T02:14:49.128Z,20.3
2018-10-16T02:15:36.339Z,20.3
2018-10-16T02:16:27.260Z,20.3
2018-10-16T02:17:17.616Z,20.3
2018-10-16T02:18:06.802Z,20.3
2018-10-16T02:18:57.697Z,20.3
2018-10-16T02:19:47.780Z,20.3
2018-10-16T02:20:37.848Z,20.3
2018-10-16T02:21:27.382Z,20.3
2018-10-16T02:22:17.385Z,20.3
2018-10-16T02:23:07.412Z,20.3
2018-10-16T02:23:57.572Z,20.3
2018-10-16T02:24:47.000Z,20.3
2018-10-16T02:25:37.913Z,20.3
2018-10-16T02:26:28.029Z,20.3
2018-10-16T02:27:17.585Z,20.3
2018-10-16T02:28:08.669Z,20.3
2018-10-16T02:28:57.310Z,20.3
2018-10-16T02:29:48.530Z,20.3
2018-10-16T02:30:37.445Z,20.3
2018-10-16T02:31:28.652Z,20.3
2018-10-16T02:32:18.409Z,20.3
2018-10-16T02:33:09.045Z,20.3
2018-10-16T02:33:58.999Z,20.3
2018-10-16T02:34:48.844Z,20.3
2018-10-16T02:35:38.834Z,20.3
2018-10-16T02:36:28.344Z,20.3
2018-10-16T02:37:18.476Z,20.3
2018-10-16T02:38:07.702Z,20.3
2018-10-16T02:38:59.170Z,20.3
2018-10-16T02:39:49.214Z,20.3
2018-10-16T02:40:38.997Z,20.3
2018-10-16T02:41:29.703Z,20.3
2018-10-16T02:42:19.706Z,20.3
2018-10-16T02:43:09.962Z,20.3
2018-10-16T02:43:59.485Z,20.3
2018-10-16T02:44:50.414Z,20.3
2018-10-16T02:45:39.877Z,20.3
2018-10-16T02:46:29.626Z,20.3
2018-10-16T02:47:19.256Z,20.3
2018-10-16T02:48:10.609Z,20.3
2018-10-16T02:48:59.951Z,20.3
2018-10-16T02:49:51.027Z,20.3
2018-10-16T02:50:39.957Z,20.3
2018-10-16T02:51:29.508Z,20.3
2018-10-16T02:52:19.834Z,20.3
2018-10-16T02:53:09.863Z,20.3
2018-10-16T02:53:59.928Z,20.3
2018-10-16T02:54:50.539Z,20.3
2018-10-16T02:55:40.314Z,20.3
2018-10-16T02:56:29.658Z,20.3
2018-10-16T02:57:20.516Z,20.3
2018-10-16T02:58:11.142Z,20.3
2018-10-16T02:59:00.878Z,20.3
2018-10-16T02:59:51.148Z,20.3
2018-10-16T03:00:41.338Z,20.3
2018-10-16T03:01:30.493Z,20.3
2018-10-16T03:02:21.458Z,20.3
2018-10-16T03:03:11.247Z,20.3
2018-10-16T03:04:01.029Z,20.3
2018-10-16T03:04:50.772Z,20.3
2018-10-16T03:05:41.084Z,20.3
2018-10-16T03:06:31.723Z,20.3
2018-10-16T03:07:20.980Z,20.3
2018-10-16T03:08:10.480Z,20.3
2018-10-16T03:09:01.914Z,20.3
2018-10-16T03:09:50.805Z,20.3
2018-10-16T03:10:41.417Z,20.3
2018-10-16T03:11:32.324Z,20.3
2018-10-16T03:12:21.912Z,20.3
2018-10-16T03:13:11.948Z,20.3
2018-10-16T03:14:01.745Z,20.3
2018-10-16T03:14:51.230Z,20.3
2018-10-16T03:15:42.617Z,20.3
2018-10-16T03:16:31.907Z,20.3
2018-10-16T03:17:21.899Z,20.3
2018-10-16T03:18:12.871Z,20.3
2018-10-16T03:19:01.872Z,20.3
2018-10-16T03:19:51.578Z,20.3
2018-10-16T03:20:44.457Z,20.3
2018-10-16T03:21:31.381Z,20.3
2018-10-16T03:22:22.249Z,20.3
2018-10-16T03:23:12.919Z,20.3
2018-10-16T03:24:02.184Z,20.3
2018-10-16T03:24:53.061Z,20.3
2018-10-16T03:25:42.274Z,20.3
2018-10-16T03:26:32.569Z,20.3
2018-10-16T03:27:22.435Z,20.3
2018-10-16T03:28:11.050Z,20.3
2018-10-16T03:29:02.364Z,20.3
2018-10-16T03:29:52.594Z,20.3
2018-10-16T03:30:43.792Z,20.3
2018-10-16T03:31:33.551Z,20.3
2018-10-16T03:32:22.840Z,20.3
2018-10-16T03:33:13.105Z,20.3
2018-10-16T03:34:03.767Z,20.3
2018-10-16T03:34:53.185Z,20.3
2018-10-16T03:35:44.307Z,20.3
2018-10-16T03:36:33.365Z,20.3
2018-10-16T03:37:23.384Z,20.3
2018-10-16T03:38:13.498Z,20.3
2018-10-16T03:39:03.535Z,20.3
2018-10-16T03:39:53.855Z,20.3
2018-10-16T03:40:43.877Z,20.3
2018-10-16T03:41:34.009Z,20.3
2018-10-16T03:42:24.613Z,20.3
2018-10-16T03:43:14.415Z,20.3
2018-10-16T03:44:03.953Z,20.3
2018-10-16T03:44:54.512Z,20.3
2018-10-16T03:45:43.537Z,20.3
2018-10-16T03:46:33.057Z,20.3
2018-10-16T03:47:24.116Z,20.3
2018-10-16T03:48:14.758Z,20.3
2018-10-16T03:49:04.236Z,20.3
2018-10-16T03:49:54.869Z,20.3
2018-10-16T03:50:44.462Z,20.3
2018-10-16T03:51:33.849Z,20.3
2018-10-16T03:52:23.905Z,20.3
2018-10-16T03:53:15.149Z,20.3
2018-10-16T03:54:04.408Z,20.3
2018-10-16T03:54:55.472Z,20.3
2018-10-16T03:55:45.246Z,20.3
2018-10-16T03:56:35.339Z,20.3
2018-10-16T03:57:26.534Z,20.3
2018-10-16T03:58:14.458Z,20.3
2018-10-16T03:59:04.140Z,20.3
2018-10-16T03:59:55.078Z,20.3
2018-10-16T04:00:46.737Z,20.3
2018-10-16T04:01:35.676Z,20.3
2018-10-16T04:02:25.247Z,20.3
2018-10-16T04:03:15.582Z,20.3
2018-10-16T04:04:05.701Z,20.3
2018-10-16T04:04:56.023Z,20.3
2018-10-16T04:05:46.206Z,20.3
2018-10-16T04:06:37.413Z,20.3
2018-10-16T04:07:25.054Z,20.3
2018-10-16T04:08:16.573Z,20.3
2018-10-16T04:09:06.016Z,20.3
2018-10-16T04:09:55.238Z,20.3
2018-10-16T04:10:46.654Z,20.3
2018-10-16T04:11:36.775Z,20.3
2018-10-16T04:12:26.528Z,20.3
2018-10-16T04:13:16.635Z,20.3
2018-10-16T04:14:08.756Z,20.3
2018-10-16T04:14:56.501Z,20.3
2018-10-16T04:15:45.645Z,20.3
2018-10-16T04:16:35.697Z,20.3
2018-10-16T04:17:25.981Z,20.3
2018-10-16T04:18:17.051Z,20.3
2018-10-16T04:19:05.605Z,20.3
2018-10-16T04:19:55.782Z,20.3
2018-10-16T04:20:46.125Z,20.3
2018-10-16T04:21:37.152Z,20.3
2018-10-16T04:22:27.743Z,20.3
2018-10-16T04:23:15.760Z,20.3
2018-10-16T04:24:06.625Z,20.3
2018-10-16T04:24:56.685Z,20.3
2018-10-16T04:25:47.067Z,20.2
2018-10-16T04:26:36.243Z,20.3
2018-10-16T04:27:27.445Z,20.3
2018-10-16T04:28:16.813Z,20.3
2018-10-16T04:29:07.519Z,20.3
2018-10-16T04:29:56.507Z,20.3
2018-10-16T04:30:46.822Z,20.3
2018-10-16T04:31:36.854Z,20.3
2018-10-16T04:32:27.267Z,20.3
2018-10-16T04:33:15.999Z,20.3
2018-10-16T04:34:06.607Z,20.3
2018-10-16T04:34:56.039Z,20.3
2018-10-16T04:35:48.002Z,20.3
2018-10-16T04:36:38.193Z,20.3
2018-10-16T04:54:51.503Z,20.2
2018-10-16T04:55:41.833Z,20.2
2018-10-16T04:56:31.905Z,20.2
2018-10-16T04:57:20.461Z,20.2
2018-10-16T04:58:11.939Z,20.2
2018-10-16T04:59:01.771Z,20.2
2018-10-16T04:59:52.039Z,20.2
2018-10-16T05:00:41.992Z,20.2
2018-10-16T05:01:32.927Z,20.2
2018-10-16T05:02:22.732Z,20.2
2018-10-16T05:03:13.383Z,20.2
2018-10-16T05:04:02.979Z,20.2
2018-10-16T05:04:51.701Z,20.2
2018-10-16T05:05:42.005Z,20.3
2018-10-16T05:06:33.513Z,20.2
2018-10-16T05:07:22.585Z,20.2
2018-10-16T05:08:13.717Z,20.2
2018-10-16T05:09:02.849Z,20.2
2018-10-16T05:09:52.764Z,20.2
2018-10-16T05:10:43.114Z,20.2
2018-10-16T05:11:33.964Z,20.2
2018-10-16T05:12:23.236Z,20.2
2018-10-16T05:13:15.456Z,20.2
2018-10-16T05:14:03.856Z,20.2
2018-10-16T05:14:53.939Z,20.2
2018-10-16T05:15:43.367Z,20.2
2018-10-16T05:16:33.469Z,20.2
2018-10-16T05:17:23.397Z,20.2
2018-10-16T05:18:12.831Z,20.2
2018-10-16T05:19:03.520Z,20.2
2018-10-16T05:19:53.519Z,20.2
2018-10-16T05:20:42.861Z,20.2
2018-10-16T05:21:34.296Z,20.2
2018-10-16T05:22:24.782Z,20.2
2018-10-16T05:23:14.565Z,20.2
2018-10-16T05:24:03.460Z,20.2
2018-10-16T05:24:53.951Z,20.2
2018-10-16T05:25:44.486Z,20.2
2018-10-16T05:26:33.863Z,20.2
2018-10-16T05:27:24.629Z,20.2
2018-10-16T05:28:14.668Z,20.2
2018-10-16T05:29:05.281Z,20.2
2018-10-16T05:29:55.693Z,20.2
2018-10-16T05:30:43.734Z,20.2
2018-10-16T05:31:37.036Z,20.2
2018-10-16T05:32:24.439Z,20.2
2018-10-16T05:33:15.208Z,20.1
2018-10-16T05:34:04.041Z,20.2
2018-10-16T05:34:54.860Z,20.2
2018-10-16T05:35:45.274Z,20.2
2018-10-16T05:36:34.983Z,20.1
2018-10-16T05:37:24.533Z,20.1
2018-10-16T05:38:14.879Z,20.3
2018-10-16T05:39:04.900Z,20.2
2018-10-16T05:39:55.037Z,20.2
2018-10-16T05:40:44.508Z,20.2
2018-10-16T05:41:35.670Z,20.1
2018-10-16T05:42:24.631Z,20.2
2018-10-16T05:43:15.528Z,20.2
2018-10-16T05:44:05.307Z,20.2
2018-10-16T05:44:55.640Z,20.2
2018-10-16T05:45:45.815Z,20.3
2018-10-16T05:46:34.904Z,20.2
2018-10-16T05:47:25.797Z,20.2
2018-10-16T05:48:15.021Z,20.2
2018-10-16T05:49:06.364Z,20.2
2018-10-16T05:49:56.037Z,20.2
2018-10-16T05:50:45.570Z,20.2
2018-10-16T05:51:35.813Z,20.2
2018-10-16T05:52:25.653Z,20.1
2018-10-16T05:53:16.575Z,20.2
2018-10-16T05:54:05.255Z,20.2
2018-10-16T05:54:56.386Z,20.1
2018-10-16T05:55:46.465Z,20.2
2018-10-16T05:56:35.943Z,20.2
2018-10-16T05:57:25.460Z,20.2
2018-10-16T05:58:16.657Z,20.2
2018-10-16T05:59:06.123Z,20.2
2018-10-16T05:59:56.448Z,20.2
2018-10-16T06:00:45.998Z,20.3
2018-10-16T06:01:36.330Z,20.2
2018-10-16T06:02:26.093Z,20.2
2018-10-16T06:03:17.215Z,20.2
2018-10-16T06:04:06.537Z,20.2
2018-10-16T06:04:56.418Z,20.2
2018-10-16T06:05:49.781Z,20.1
2018-10-16T06:06:36.810Z,20.2
2018-10-16T06:07:26.490Z,20.2
2018-10-16T06:08:16.155Z,20.2
2018-10-16T06:09:07.177Z,20.2
2018-10-16T06:09:56.682Z,20.2
2018-10-16T06:10:47.821Z,20.2
2018-10-16T06:11:36.509Z,20.2
2018-10-16T06:12:28.885Z,20.1
2018-10-16T06:13:17.983Z,20.1
2018-10-16T06:14:07.361Z,20.1
2018-10-16T06:14:57.335Z,20.1
2018-10-16T06:15:47.316Z,20.1
2018-10-16T06:16:38.172Z,20.1
2018-10-16T06:17:27.717Z,20.1
2018-10-16T06:18:17.451Z,20
2018-10-16T06:19:08.149Z,20.1
2018-10-16T06:19:58.129Z,20
2018-10-16T06:20:48.023Z,20
2018-10-16T06:21:37.231Z,20
2018-10-16T06:22:28.055Z,20
2018-10-16T06:23:18.629Z,20
2018-10-16T06:24:08.502Z,20
2018-10-16T06:24:58.629Z,20
2018-10-16T06:25:47.533Z,20
2018-10-16T06:26:39.513Z,20.1
2018-10-16T06:27:29.137Z,20.1
2018-10-16T06:28:19.109Z,20.1
2018-10-16T06:29:08.116Z,20.1
2018-10-16T06:29:58.741Z,20.1
2018-10-16T06:30:49.321Z,20.1
2018-10-16T06:31:38.839Z,20.1
2018-10-16T06:32:28.254Z,20.1
2018-10-16T06:33:20.045Z,20.1
2018-10-16T06:34:09.550Z,20.1
2018-10-16T06:34:58.948Z,20
2018-10-16T06:35:49.786Z,20.1
2018-10-16T06:36:39.745Z,20.1
2018-10-16T06:37:28.703Z,20.1
2018-10-16T06:38:18.428Z,20
2018-10-16T06:39:10.039Z,20
2018-10-16T06:39:57.996Z,20.1
2018-10-16T06:40:52.884Z,20.1
2018-10-16T06:41:42.095Z,20.1
2018-10-16T06:42:29.293Z,20
2018-10-16T06:43:19.878Z,20.1
2018-10-16T06:44:09.427Z,20.1
2018-10-16T06:44:59.483Z,20
2018-10-16T06:45:49.656Z,20
2018-10-16T06:46:42.167Z,20
2018-10-16T06:47:32.151Z,20
2018-10-16T06:48:26.382Z,20
2018-10-16T06:49:10.607Z,20
2018-10-16T06:50:00.196Z,20
2018-10-16T06:50:49.648Z,20.1
2018-10-16T06:51:39.758Z,20.1
2018-10-16T06:52:29.752Z,20.1
2018-10-16T06:53:21.345Z,20
2018-10-16T06:54:09.581Z,20
2018-10-16T06:55:00.841Z,20.1
2018-10-16T06:55:50.002Z,20
2018-10-16T06:56:41.220Z,19.9
2018-10-16T06:57:30.981Z,20.1
2018-10-16T06:58:19.849Z,20
2018-10-16T06:59:11.381Z,20
2018-10-16T07:00:01.762Z,20
2018-10-16T07:00:49.859Z,20
2018-10-16T07:01:41.768Z,20
2018-10-16T07:02:31.490Z,20
2018-10-16T07:03:21.131Z,20
2018-10-16T07:04:10.957Z,19.9
2018-10-16T07:05:01.782Z,20
2018-10-16T07:05:50.990Z,20
2018-10-16T07:06:42.457Z,19.9
2018-10-16T07:07:31.857Z,20
2018-10-16T07:08:21.729Z,20
2018-10-16T07:09:11.597Z,20
2018-10-16T07:10:01.079Z,20
2018-10-16T07:10:52.317Z,19.9
2018-10-16T07:11:41.500Z,20
2018-10-16T07:12:31.263Z,20
2018-10-16T07:13:21.579Z,20
2018-10-16T07:14:10.303Z,20
2018-10-16T07:15:04.104Z,20
2018-10-16T07:15:51.506Z,20
2018-10-16T07:16:41.688Z,19.9
2018-10-16T07:17:32.386Z,19.9
2018-10-16T07:18:22.001Z,20
2018-10-16T07:19:12.299Z,20
2018-10-16T07:20:01.267Z,20
2018-10-16T07:20:52.999Z,20
2018-10-16T07:21:44.245Z,19.9
2018-10-16T07:22:32.579Z,19.9
2018-10-16T07:23:23.243Z,19.9
2018-10-16T07:24:13.849Z,19.9
2018-10-16T07:25:02.474Z,20
2018-10-16T07:25:52.824Z,19.9
2018-10-16T07:26:42.404Z,19.9
2018-10-16T07:27:33.441Z,19.9
2018-10-16T07:28:22.529Z,19.9
2018-10-16T07:29:13.073Z,19.9
2018-10-16T07:30:03.413Z,19.9
2018-10-16T07:30:52.915Z,19.9
2018-10-16T07:31:42.761Z,19.9
2018-10-16T07:32:33.076Z,19.9
2018-10-16T07:33:23.498Z,19.9
2018-10-16T07:34:13.444Z,19.9
2018-10-16T07:35:04.065Z,19.9
2018-10-16T07:35:53.573Z,19.9
2018-10-16T07:36:43.381Z,19.9
2018-10-16T07:37:34.201Z,19.9
2018-10-16T07:38:26.306Z,19.9
2018-10-16T07:39:14.564Z,19.9
2018-10-16T07:40:03.866Z,20
2018-10-16T07:40:54.206Z,20
2018-10-16T07:41:43.418Z,20
2018-10-16T07:42:34.378Z,20
2018-10-16T07:43:23.613Z,20
2018-10-16T07:44:13.675Z,20
2018-10-16T07:45:04.742Z,19.9
2018-10-16T07:45:53.717Z,20
2018-10-16T07:46:44.114Z,20
2018-10-16T07:47:34.956Z,19.9
2018-10-16T07:48:26.181Z,20
2018-10-16T07:49:13.175Z,19.9
2018-10-16T07:50:04.927Z,19.9
2018-10-16T07:50:55.139Z,19.9
2018-10-16T07:51:44.515Z,20
2018-10-16T07:52:33.868Z,20
2018-10-16T07:53:24.829Z,20
2018-10-16T07:54:15.245Z,20
2018-10-16T07:55:04.262Z,20
2018-10-16T07:55:55.744Z,20
2018-10-16T07:56:45.147Z,20
2018-10-16T07:57:35.674Z,20.1
2018-10-16T07:58:25.474Z,20
2018-10-16T07:59:14.817Z,20.1
2018-10-16T08:00:05.365Z,20
2018-10-16T08:00:55.637Z,20
2018-10-16T08:01:44.594Z,20.1
2018-10-16T08:02:34.321Z,20
2018-10-16T08:03:26.079Z,20
2018-10-16T08:04:15.386Z,20
2018-10-16T08:05:06.764Z,20.1
2018-10-16T08:05:56.654Z,20.1
2018-10-16T08:06:46.136Z,20
2018-10-16T08:07:34.766Z,20
2018-10-16T08:08:25.886Z,20
2018-10-16T08:09:16.348Z,20.1
2018-10-16T08:10:05.829Z,20.1
2018-10-16T08:10:55.538Z,20.1
2018-10-16T08:11:45.988Z,20.1
2018-10-16T08:12:36.440Z,20
2018-10-16T08:13:26.358Z,20.1
2018-10-16T08:14:16.104Z,20.1
2018-10-16T08:15:06.736Z,20.1
2018-10-16T08:15:56.298Z,20.1
2018-10-16T08:16:47.087Z,20.1
2018-10-16T08:17:36.730Z,20.1
2018-10-16T08:18:27.039Z,20.1
2018-10-16T08:19:16.445Z,20.1
2018-10-16T08:20:07.085Z,20.1
2018-10-16T08:20:55.777Z,20.1
2018-10-16T08:21:46.702Z,20.1
2018-10-16T08:22:36.777Z,20.1
2018-10-16T08:23:27.520Z,20.1
2018-10-16T08:24:16.823Z,20.1
2018-10-16T08:25:08.043Z,20.1
2018-10-16T08:25:57.729Z,20.1
2018-10-16T08:26:47.173Z,20.1
2018-10-16T08:27:36.911Z,20.1
2018-10-16T08:28:27.955Z,20.1
2018-10-16T08:29:17.219Z,20.1
2018-10-16T08:30:09.606Z,20.1
2018-10-16T08:30:58.159Z,20.1
2018-10-16T08:31:47.931Z,20.1
2018-10-16T08:32:39.086Z,20.1
2018-10-16T08:33:27.197Z,20.1
2018-10-16T08:34:20.357Z,20.1
2018-10-16T08:35:08.243Z,20.1
2018-10-16T08:35:59.755Z,20.1
2018-10-16T08:36:50.810Z,20.1
2018-10-16T08:37:39.246Z,20.1
2018-10-16T08:38:27.300Z,20.1
2018-10-16T08:39:19.070Z,20.1
2018-10-16T08:40:08.669Z,20.1
2018-10-16T08:40:58.330Z,20.1
2018-10-16T08:41:49.679Z,20.1
2018-10-16T08:42:38.961Z,20.1
2018-10-16T08:43:28.435Z,20.1
2018-10-16T08:44:19.123Z,20.1
2018-10-16T08:45:11.018Z,20.2
2018-10-16T08:45:58.995Z,20.1
2018-10-16T08:46:49.103Z,20.1
2018-10-16T08:47:41.252Z,20.2
2018-10-16T08:48:29.110Z,20.1
2018-10-16T08:49:19.967Z,20.2
2018-10-16T08:50:09.832Z,20.1
2018-10-16T08:50:59.358Z,20.1
2018-10-16T08:51:48.867Z,20.1
2018-10-16T08:52:39.734Z,20.1
2018-10-16T09:09:09.259Z,20
2018-10-16T09:09:58.806Z,20.1
2018-10-16T09:10:48.898Z,20.1
2018-10-16T09:11:38.453Z,20.1
2018-10-16T09:12:28.974Z,20.1
2018-10-16T09:13:21.321Z,20
2018-10-16T09:14:10.932Z,20.1
2018-10-16T09:14:59.176Z,20.1
2018-10-16T09:15:49.243Z,20.1
2018-10-16T09:16:38.991Z,20.1
2018-10-16T09:17:29.329Z,20.1
2018-10-16T09:18:19.431Z,20
2018-10-16T09:19:09.448Z,20.1
2018-10-16T09:19:59.279Z,20.1
2018-10-16T09:20:50.418Z,20.1
2018-10-16T09:21:39.052Z,20.1
2018-10-16T09:22:29.952Z,20.1
2018-10-16T09:23:19.245Z,20.1
2018-10-16T09:24:09.436Z,20.1
2018-10-16T09:25:01.561Z,20.1
2018-10-16T09:25:50.447Z,20.1
2018-10-16T09:26:39.506Z,20.1
2018-10-16T09:27:30.079Z,20.1
2018-10-16T09:28:20.133Z,20.1
2018-10-16T09:29:10.200Z,20.1
2018-10-16T09:30:00.270Z,20.1
2018-10-16T09:30:51.412Z,20.1
2018-10-16T09:31:40.370Z,20.1
2018-10-16T09:32:30.410Z,20.1
2018-10-16T09:33:19.936Z,20.1
2018-10-16T09:34:10.872Z,20.1
2018-10-16T09:34:59.747Z,20.1
2018-10-16T09:35:51.202Z,20.1
2018-10-16T09:36:40.445Z,20.1
2018-10-16T09:37:31.950Z,20.1
2018-10-16T09:38:21.331Z,20.1
2018-10-16T09:39:10.597Z,20.2
2018-10-16T09:40:00.715Z,20.1
2018-10-16T09:40:52.058Z,20.1
2018-10-16T09:41:43.706Z,20.1
2018-10-16T09:42:30.821Z,20.1
2018-10-16T09:43:21.386Z,20.2
2018-10-16T09:44:13.024Z,20.2
2018-10-16T09:45:02.191Z,20.1
2018-10-16T09:45:52.289Z,20.1
2018-10-16T09:46:40.024Z,20.2
2018-10-16T09:47:31.840Z,20.2
2018-10-16T09:48:20.662Z,20.2
2018-10-16T09:49:11.695Z,20.2
2018-10-16T09:50:01.267Z,20.2
2018-10-16T09:50:54.182Z,20.2
2018-10-16T09:51:41.273Z,20.3
2018-10-16T09:52:31.726Z,20.3
2018-10-16T09:53:21.746Z,20.2
2018-10-16T09:54:12.037Z,20.2
2018-10-16T09:55:02.382Z,20.3
2018-10-16T09:55:52.282Z,20.3
2018-10-16T09:56:41.919Z,20.2
2018-10-16T09:57:31.163Z,20.3
2018-10-16T09:58:22.056Z,20.3
2018-10-16T09:59:12.656Z,20.2
2018-10-16T10:00:02.112Z,20.2
2018-10-16T10:00:53.850Z,20.2
2018-10-16T10:01:42.633Z,20.3
2018-10-16T10:02:32.754Z,20.3
2018-10-16T10:03:21.871Z,20.3
2018-10-16T10:04:13.348Z,20.3
2018-10-16T10:05:03.410Z,20.3
2018-10-16T10:05:52.903Z,20.3
2018-10-16T10:06:42.114Z,20.3
2018-10-16T10:07:33.031Z,20.2
2018-10-16T10:08:22.469Z,20.3
2018-10-16T10:09:12.623Z,20.3
2018-10-16T10:10:03.131Z,20.3
2018-10-16T10:10:53.825Z,20.3
2018-10-16T10:11:43.309Z,20.3
2018-10-16T10:12:32.468Z,20.3
2018-10-16T10:13:23.794Z,20.3
2018-10-16T10:14:13.522Z,20.3
2018-10-16T10:15:02.978Z,20.3
2018-10-16T10:15:53.135Z,20.3
2018-10-16T10:16:44.480Z,20.3
2018-10-16T10:17:33.733Z,20.3
2018-10-16T10:18:23.837Z,20.3
2018-10-16T10:19:13.110Z,20.3
2018-10-16T10:20:03.353Z,20.3
2018-10-16T10:20:54.292Z,20.4
2018-10-16T10:21:44.495Z,20.4
2018-10-16T10:22:33.863Z,20.4
2018-10-16T10:23:25.073Z,20.4
2018-10-16T10:24:13.485Z,20.4
2018-10-16T10:25:05.047Z,20.4
2018-10-16T10:25:53.025Z,20.4
2018-10-16T10:26:43.627Z,20.4
2018-10-16T10:27:34.020Z,20.4
2018-10-16T10:28:24.050Z,20.4
2018-10-16T10:29:14.174Z,20.4
2018-10-16T10:30:03.873Z,20.4
2018-10-16T10:30:53.436Z,20.4
2018-10-16T10:31:44.008Z,20.4
2018-10-16T10:32:34.160Z,20.4
2018-10-16T10:33:23.320Z,20.4
2018-10-16T10:34:13.939Z,20.4
2018-10-16T10:35:05.159Z,20.4
2018-10-16T10:35:55.279Z,20.3
2018-10-16T10:36:44.726Z,20.4
2018-10-16T10:37:35.036Z,20.4
2018-10-16T10:38:24.274Z,20.4
2018-10-16T10:39:14.263Z,20.4
2018-10-16T10:40:04.688Z,20.4
2018-10-16T10:40:55.593Z,20.5
2018-10-16T10:41:45.230Z,20.4
2018-10-16T10:42:35.772Z,20.4
2018-10-16T10:43:25.635Z,20.4
2018-10-16T10:44:14.278Z,20.4
2018-10-16T10:45:05.527Z,20.4
2018-10-16T10:45:55.599Z,20.4
2018-10-16T10:46:45.620Z,20.4
2018-10-16T10:47:35.590Z,20.4
2018-10-16T10:48:25.701Z,20.4
2018-10-16T10:49:15.478Z,20.4
2018-10-16T10:50:09.426Z,20.4
2018-10-16T10:51:01.303Z,20.4
2018-10-16T10:51:50.273Z,20.4
2018-10-16T10:52:35.670Z,20.4
2018-10-16T10:53:26.880Z,20.5
2018-10-16T10:54:16.627Z,20.5
2018-10-16T10:55:06.722Z,20.4
2018-10-16T10:55:56.734Z,20.4
2018-10-16T10:56:49.726Z,20.4
2018-10-16T10:57:37.474Z,20.4
2018-10-16T10:58:27.869Z,20.4
2018-10-16T10:59:17.227Z,20.4
2018-10-16T11:00:07.353Z,20.5
2018-10-16T11:00:57.503Z,20.5
2018-10-16T11:01:47.790Z,20.5
2018-10-16T11:02:37.378Z,20.5
2018-10-16T11:03:34.177Z,20.5
2018-10-16T11:04:17.355Z,20.5
2018-10-16T11:05:07.963Z,20.5
2018-10-16T11:05:57.738Z,20.5
2018-10-16T11:06:47.980Z,20.5
2018-10-16T11:07:37.785Z,20.5
2018-10-16T11:08:27.874Z,20.5
2018-10-16T11:09:20.312Z,20.5
2018-10-16T11:10:08.221Z,20.5
2018-10-16T11:10:58.575Z,20.5
2018-10-16T11:11:47.996Z,20.5
2018-10-16T11:12:38.199Z,20.5
2018-10-16T11:13:28.745Z,20.5
2018-10-16T11:14:17.985Z,20.6
2018-10-16T11:15:11.328Z,20.6
2018-10-16T11:15:58.620Z,20.6
2018-10-16T11:16:48.345Z,20.5
2018-10-16T11:17:40.499Z,20.6
2018-10-16T11:18:28.471Z,20.6
2018-10-16T11:19:18.496Z,20.5
2018-10-16T11:20:08.881Z,20.5
2018-10-16T11:20:59.747Z,20.6
2018-10-16T11:21:50.657Z,20.5
2018-10-16T11:22:38.433Z,20.6
2018-10-16T11:23:29.434Z,20.6
2018-10-16T11:24:19.391Z,20.6
2018-10-16T11:25:09.163Z,20.6
2018-10-16T11:25:59.670Z,20.6
2018-10-16T11:26:49.528Z,20.6
2018-10-16T11:27:39.265Z,20.6
2018-10-16T11:28:29.096Z,20.6
2018-10-16T11:29:18.568Z,20.6
2018-10-16T11:30:10.453Z,20.6
2018-10-16T11:30:58.460Z,20.6
2018-10-16T11:31:48.717Z,20.6
2018-10-16T11:32:39.657Z,20.6
2018-10-16T11:33:29.952Z,20.6
2018-10-16T11:34:19.785Z,20.6
2018-10-16T11:35:10.692Z,20.6
2018-10-16T11:35:59.309Z,20.6
2018-10-16T11:36:49.954Z,20.6
2018-10-16T11:37:40.642Z,20.6
2018-10-16T11:38:29.795Z,20.6
2018-10-16T11:39:21.577Z,20.6
2018-10-16T11:40:10.138Z,20.6
2018-10-16T11:40:59.590Z,20.6
2018-10-16T11:41:50.497Z,20.6
2018-10-16T11:42:40.815Z,20.6
2018-10-16T11:43:31.214Z,20.6
2018-10-16T11:44:19.772Z,20.6
2018-10-16T11:45:13.065Z,20.6
2018-10-16T11:46:01.971Z,20.7
2018-10-16T11:46:50.307Z,20.7
2018-10-16T11:47:41.310Z,20.6
2018-10-16T11:48:30.393Z,20.7
2018-10-16T11:49:21.336Z,20.6
2018-10-16T11:50:13.952Z,20.7
2018-10-16T11:51:00.967Z,20.7
2018-10-16T11:51:51.480Z,20.7
2018-10-16T11:52:41.036Z,20.6
2018-10-16T11:53:31.267Z,20.7
2018-10-16T11:54:21.226Z,20.7
2018-10-16T11:55:11.474Z,20.7
2018-10-16T11:56:02.248Z,20.7
2018-10-16T11:56:51.119Z,20.7
2018-10-16T11:57:41.491Z,20.7
2018-10-16T11:58:31.813Z,20.7
2018-10-16T11:59:24.918Z,20.7
2018-10-16T12:00:11.071Z,20.8
2018-10-16T12:01:01.891Z,20.8
2018-10-16T12:01:49.191Z,20.8